createdAt,value
2018-03-22T00:01:16.864Z,10.90
2018-03-22T00:03:45.775Z,10.47
2018-03-22T00:06:14.733Z,10.70
2018-03-22T00:08:43.980Z,11.73
2018-03-22T00:11:12.936Z,11.97
2018-03-22T00:13:41.922Z,11.37
2018-03-22T00:16:11.280Z,11.37
2018-03-22T00:18:40.290Z,11.47
2018-03-22T00:21:09.253Z,9.80
2018-03-22T00:23:39.488Z,9.47
2018-03-22T00:26:08.380Z,10.20
2018-03-22T00:28:37.601Z,9.90
2018-03-22T00:31:07.918Z,9.00
2018-03-22T00:33:36.809Z,9.80
2018-03-22T00:36:06.554Z,8.90
2018-03-22T00:38:35.804Z,9.50
2018-03-22T00:41:05.810Z,7.97
2018-03-22T00:43:34.694Z,8.87
2018-03-22T00:46:04.985Z,8.37
2018-03-22T00:48:33.920Z,8.00
2018-03-22T00:51:03.230Z,7.67
2018-03-22T00:53:32.105Z,8.60
2018-03-22T00:56:01.942Z,8.87
2018-03-22T00:58:31.171Z,9.00
2018-03-22T01:01:00.164Z,8.90
2018-03-22T01:03:29.030Z,8.53
2018-03-22T01:05:57.884Z,8.27
2018-03-22T01:08:27.094Z,8.13
2018-03-22T01:10:56.291Z,9.30
2018-03-22T01:13:25.220Z,8.20
2018-03-22T01:15:54.211Z,8.47
2018-03-22T01:18:23.401Z,8.87
2018-03-22T01:20:52.320Z,8.50
2018-03-22T01:23:21.214Z,7.80
2018-03-22T01:25:50.412Z,7.57
2018-03-22T01:28:19.327Z,7.90
2018-03-22T01:30:48.212Z,8.10
2018-03-22T01:33:17.413Z,8.40
2018-03-22T01:35:46.326Z,7.80
2018-03-22T01:38:15.251Z,7.97
2018-03-22T01:40:44.507Z,8.23
2018-03-22T01:43:13.395Z,8.37
2018-03-22T01:45:42.307Z,8.23
2018-03-22T01:48:11.502Z,8.40
2018-03-22T01:50:40.389Z,8.30
2018-03-22T01:53:14.868Z,8.83
2018-03-22T01:55:44.067Z,8.90
2018-03-22T01:58:13.095Z,8.93
2018-03-22T02:00:42.011Z,9.57
2018-03-22T02:03:11.188Z,9.27
2018-03-22T02:05:40.050Z,8.00
2018-03-22T02:08:08.935Z,8.63
2018-03-22T02:10:38.644Z,7.77
2018-03-22T02:13:07.578Z,8.03
2018-03-22T02:15:36.442Z,8.70
2018-03-22T02:18:06.757Z,9.80
2018-03-22T02:20:36.020Z,9.50
2018-03-22T02:23:04.943Z,9.07
2018-03-22T02:25:34.141Z,8.60
2018-03-22T02:28:04.627Z,8.80
2018-03-22T02:30:33.556Z,8.37
2018-03-22T02:33:03.063Z,8.47
2018-03-22T02:35:32.434Z,9.10
2018-03-22T02:38:02.987Z,9.13
2018-03-22T02:40:32.146Z,9.00
2018-03-22T02:43:01.139Z,8.47
2018-03-22T02:45:30.023Z,9.30
2018-03-22T02:47:59.238Z,9.40
2018-03-22T02:50:28.155Z,9.50
2018-03-22T02:52:57.096Z,9.00
2018-03-22T02:55:26.304Z,8.70
2018-03-22T02:57:55.305Z,9.10
2018-03-22T03:00:24.263Z,9.70
2018-03-22T03:02:53.973Z,9.30
2018-03-22T03:05:22.843Z,10.00
2018-03-22T03:07:51.751Z,10.10
2018-03-22T03:10:21.225Z,9.73
2018-03-22T03:12:50.202Z,9.60
2018-03-22T03:15:19.158Z,9.70
2018-03-22T03:17:48.431Z,10.43
2018-03-22T03:20:17.399Z,10.30
2018-03-22T03:22:46.291Z,11.33
2018-03-22T03:25:15.736Z,9.83
2018-03-22T03:27:44.661Z,10.40
2018-03-22T03:30:13.548Z,9.60
2018-03-22T03:32:43.731Z,9.00
2018-03-22T03:35:12.615Z,10.67
2018-03-22T03:37:41.464Z,9.07
2018-03-22T03:40:10.611Z,9.53
2018-03-22T03:42:39.523Z,9.90
2018-03-22T03:45:08.397Z,9.07
2018-03-22T03:47:38.635Z,9.10
2018-03-22T03:50:07.512Z,8.53
2018-03-22T03:52:36.382Z,8.37
2018-03-22T03:55:06.691Z,8.73
2018-03-22T03:57:35.537Z,9.00
2018-03-22T04:00:06.554Z,9.60
2018-03-22T04:02:35.721Z,8.70
2018-03-22T04:05:05.015Z,9.80
2018-03-22T04:07:33.868Z,9.67
2018-03-22T04:10:04.426Z,8.30
2018-03-22T04:12:33.335Z,9.90
2018-03-22T04:15:02.614Z,8.53
2018-03-22T04:17:31.815Z,9.17
2018-03-22T04:20:00.840Z,9.30
2018-03-22T04:22:29.768Z,9.67
2018-03-22T04:25:00.005Z,8.57
2018-03-22T04:27:28.857Z,8.70
2018-03-22T04:29:57.783Z,8.40
2018-03-22T04:32:26.927Z,9.07
2018-03-22T04:34:55.868Z,8.40
2018-03-22T04:37:24.731Z,8.23
2018-03-22T04:39:53.924Z,8.33
2018-03-22T04:42:22.995Z,8.53
2018-03-22T04:44:51.870Z,8.20
2018-03-22T04:47:21.042Z,8.83
2018-03-22T04:49:49.913Z,9.27
2018-03-22T04:52:18.777Z,8.20
2018-03-22T04:54:48.298Z,8.40
2018-03-22T04:57:47.271Z,8.33
2018-03-22T05:00:16.460Z,7.50
2018-03-22T05:02:45.434Z,8.50
2018-03-22T05:05:14.434Z,7.97
2018-03-22T05:07:43.595Z,8.30
2018-03-22T05:10:12.488Z,7.60
2018-03-22T05:12:41.417Z,7.83
2018-03-22T05:15:11.435Z,8.17
2018-03-22T05:17:40.997Z,7.90
2018-03-22T05:20:09.844Z,8.07
2018-03-22T05:22:38.780Z,8.20
2018-03-22T05:25:07.713Z,8.10
2018-03-22T05:27:36.925Z,9.40
2018-03-22T05:30:06.697Z,9.00
2018-03-22T05:32:35.588Z,9.03
2018-03-22T05:35:05.622Z,9.33
2018-03-22T05:37:34.502Z,9.50
2018-03-22T05:40:04.859Z,9.63
2018-03-22T05:42:34.154Z,9.70
2018-03-22T05:45:03.921Z,9.60
2018-03-22T05:47:32.932Z,9.50
2018-03-22T05:50:04.023Z,9.40
2018-03-22T05:52:33.034Z,37.07
2018-03-22T05:55:03.617Z,9.73
2018-03-22T05:57:32.821Z,9.73
2018-03-22T06:00:03.050Z,9.93
2018-03-22T06:02:32.024Z,9.00
2018-03-22T06:05:02.058Z,9.83
2018-03-22T06:07:31.427Z,9.77
2018-03-22T06:10:00.714Z,9.03
2018-03-22T06:12:30.957Z,10.13
2018-03-22T06:14:59.978Z,9.00
2018-03-22T06:17:28.843Z,8.87
2018-03-22T06:19:58.106Z,8.50
2018-03-22T06:22:27.091Z,10.20
2018-03-22T06:24:56.378Z,8.83
2018-03-22T06:27:25.640Z,8.90
2018-03-22T06:29:54.613Z,9.70
2018-03-22T06:32:27.658Z,9.77
2018-03-22T06:34:57.022Z,9.80
2018-03-22T06:37:26.001Z,9.90
2018-03-22T06:39:55.070Z,9.47
2018-03-22T06:42:24.358Z,9.40
2018-03-22T06:44:53.356Z,9.97
2018-03-22T06:47:22.267Z,9.77
2018-03-22T06:49:51.540Z,11.00
2018-03-22T06:52:20.516Z,9.93
2018-03-22T06:54:49.423Z,10.10
2018-03-22T06:57:22.254Z,10.40
2018-03-22T06:59:51.579Z,10.03
2018-03-22T07:02:20.849Z,16.10
2018-03-22T07:04:50.047Z,11.60
2018-03-22T07:07:18.999Z,10.30
2018-03-22T07:09:47.990Z,9.90
2018-03-22T07:12:17.495Z,9.20
2018-03-22T07:14:46.395Z,9.97
2018-03-22T07:17:15.611Z,10.60
2018-03-22T07:19:44.888Z,10.23
2018-03-22T07:22:13.965Z,9.67
2018-03-22T07:24:42.968Z,10.20
2018-03-22T07:27:12.889Z,9.40
2018-03-22T07:29:41.867Z,10.27
2018-03-22T07:32:10.818Z,10.17
2018-03-22T07:34:40.044Z,9.90
2018-03-22T07:37:09.000Z,10.50
2018-03-22T07:39:37.994Z,10.43
2018-03-22T07:42:07.370Z,11.40
2018-03-22T07:44:40.366Z,10.70
2018-03-22T07:47:09.456Z,10.43
2018-03-22T07:49:38.928Z,10.30
2018-03-22T07:52:07.841Z,10.57
2018-03-22T07:54:36.822Z,10.67
2018-03-22T07:57:06.533Z,9.17
2018-03-22T07:59:35.609Z,10.53
2018-03-22T08:02:05.864Z,11.00
2018-03-22T08:04:35.150Z,10.73
2018-03-22T08:07:05.745Z,9.73
2018-03-22T08:09:34.937Z,10.00
2018-03-22T08:12:05.171Z,8.83
2018-03-22T08:14:34.113Z,11.13
2018-03-22T08:17:04.091Z,10.47
2018-03-22T08:19:33.392Z,10.23
2018-03-22T08:22:05.102Z,9.90
2018-03-22T08:24:34.188Z,9.77
2018-03-22T08:27:03.749Z,10.43
2018-03-22T08:29:32.748Z,10.03
2018-03-22T08:32:02.844Z,10.63
2018-03-22T08:34:32.126Z,10.57
2018-03-22T08:37:01.266Z,9.53
2018-03-22T08:39:30.489Z,9.37
2018-03-22T08:42:00.088Z,10.63
2018-03-22T08:44:29.055Z,9.57
2018-03-22T08:46:57.974Z,9.93
2018-03-22T08:49:27.221Z,9.30
2018-03-22T08:51:56.200Z,9.43
2018-03-22T08:54:25.226Z,10.10
2018-03-22T08:56:54.538Z,11.00
2018-03-22T08:59:23.584Z,9.87
2018-03-22T09:01:53.506Z,10.30
2018-03-22T09:04:22.650Z,11.80
2018-03-22T09:06:51.563Z,11.00
2018-03-22T09:09:20.481Z,9.70
2018-03-22T09:11:49.443Z,11.00
2018-03-22T09:14:18.358Z,10.50
2018-03-22T09:16:47.227Z,10.77
2018-03-22T09:19:16.462Z,11.00
2018-03-22T09:21:45.498Z,10.97
2018-03-22T09:24:14.432Z,11.50
2018-03-22T09:26:47.693Z,11.27
2018-03-22T09:29:16.791Z,12.30
2018-03-22T09:31:45.820Z,12.80
2018-03-22T09:34:15.384Z,11.93
2018-03-22T09:36:44.515Z,14.60
2018-03-22T09:39:13.628Z,14.97
2018-03-22T09:41:42.965Z,14.13
2018-03-22T09:44:11.936Z,14.03
2018-03-22T09:46:41.453Z,15.37
2018-03-22T09:49:11.068Z,14.97
2018-03-22T09:51:40.032Z,14.53
2018-03-22T09:54:09.005Z,15.90
2018-03-22T09:56:38.266Z,15.57
2018-03-22T09:59:07.270Z,15.80
2018-03-22T10:01:36.224Z,16.50
2018-03-22T10:04:06.079Z,15.30
2018-03-22T10:06:34.957Z,15.37
2018-03-22T10:09:04.545Z,15.93
2018-03-22T10:11:34.835Z,17.80
2018-03-22T10:14:05.594Z,16.37
2018-03-22T10:16:34.562Z,16.73
2018-03-22T10:19:05.195Z,17.23
2018-03-22T10:21:34.219Z,14.83
2018-03-22T10:24:04.084Z,15.43
2018-03-22T10:26:33.315Z,15.87
2018-03-22T10:29:03.218Z,17.83
2018-03-22T10:31:32.144Z,16.60
2018-03-22T10:34:01.628Z,15.97
2018-03-22T10:36:30.577Z,19.00
2018-03-22T10:38:59.489Z,17.30
2018-03-22T10:41:28.728Z,18.30
2018-03-22T10:43:57.665Z,18.87
2018-03-22T10:46:26.987Z,21.00
2018-03-22T10:48:56.294Z,21.03
2018-03-22T10:51:25.659Z,18.90
2018-03-22T10:53:54.593Z,18.73
2018-03-22T10:56:23.838Z,20.53
2018-03-22T10:58:52.808Z,19.90
2018-03-22T11:01:25.830Z,19.93
2018-03-22T11:03:55.060Z,20.43
2018-03-22T11:06:23.955Z,18.50
2018-03-22T11:08:52.845Z,19.47
2018-03-22T11:11:21.812Z,19.60
2018-03-22T11:13:50.815Z,17.70
2018-03-22T11:16:20.342Z,20.60
2018-03-22T11:18:49.325Z,21.87
2018-03-22T11:21:18.297Z,22.53
2018-03-22T11:23:47.186Z,22.40
2018-03-22T11:26:16.096Z,22.10
2018-03-22T11:28:45.315Z,20.43
2018-03-22T11:31:14.902Z,22.63
2018-03-22T11:33:43.883Z,21.80
2018-03-22T11:36:13.175Z,22.00
2018-03-22T11:38:42.121Z,21.10
2018-03-22T11:41:11.090Z,20.80
2018-03-22T11:43:40.358Z,21.80
2018-03-22T11:46:09.597Z,23.30
2018-03-22T11:48:39.394Z,21.73
2018-03-22T11:51:08.383Z,22.10
2018-03-22T11:53:37.282Z,22.53
2018-03-22T11:56:06.276Z,21.67
2018-03-22T11:58:35.568Z,21.43
2018-03-22T12:01:05.193Z,25.60
2018-03-22T12:03:34.128Z,22.00
2018-03-22T12:06:04.972Z,21.53
2018-03-22T12:08:33.892Z,19.57
2018-03-22T12:11:03.617Z,23.00
2018-03-22T12:13:32.917Z,22.57
2018-03-22T12:16:03.722Z,21.50
2018-03-22T12:18:32.602Z,21.87
2018-03-22T12:21:02.934Z,20.93
2018-03-22T12:23:34.803Z,21.43
2018-03-22T12:26:08.348Z,20.13
2018-03-22T12:28:37.655Z,22.17
2018-03-22T12:31:06.709Z,22.40
2018-03-22T12:33:35.790Z,18.97
2018-03-22T12:36:05.864Z,24.10
2018-03-22T12:38:34.783Z,22.87
2018-03-22T12:41:04.298Z,22.10
2018-03-22T12:43:34.594Z,21.07
2018-03-22T12:46:04.675Z,19.10
2018-03-22T12:48:33.619Z,18.17
2018-03-22T12:51:03.606Z,19.43
2018-03-22T12:53:32.548Z,20.43
2018-03-22T12:56:01.779Z,19.93
2018-03-22T12:58:31.027Z,21.30
2018-03-22T13:01:00.081Z,19.80
2018-03-22T13:03:29.019Z,20.20
2018-03-22T13:05:58.344Z,19.27
2018-03-22T13:08:27.333Z,16.97
2018-03-22T13:10:56.324Z,17.47
2018-03-22T13:13:25.588Z,17.50
2018-03-22T13:15:54.535Z,16.00
2018-03-22T13:18:23.609Z,14.77
2018-03-22T13:20:53.276Z,11.67
2018-03-22T13:23:22.601Z,11.80
2018-03-22T13:25:51.598Z,11.10
2018-03-22T13:28:20.916Z,11.90
2018-03-22T13:30:49.928Z,11.20
2018-03-22T13:33:19.062Z,10.80
2018-03-22T13:35:49.488Z,11.87
2018-03-22T13:38:18.630Z,11.90
2018-03-22T13:40:47.563Z,12.43
2018-03-22T13:43:17.394Z,10.13
2018-03-22T13:45:46.392Z,11.73
2018-03-22T13:48:15.358Z,11.80
2018-03-22T13:50:44.589Z,12.83
2018-03-22T13:53:13.489Z,12.13
2018-03-22T13:55:42.429Z,13.00
2018-03-22T13:58:12.080Z,11.93
2018-03-22T14:00:41.011Z,12.70
2018-03-22T14:03:10.017Z,13.70
2018-03-22T14:05:39.321Z,14.07
2018-03-22T14:08:10.096Z,13.40
2018-03-22T14:10:39.095Z,14.20
2018-03-22T14:13:08.721Z,15.83
2018-03-22T14:15:37.665Z,15.83
2018-03-22T14:18:06.594Z,15.30
2018-03-22T14:20:35.840Z,16.93
2018-03-22T14:23:05.554Z,18.50
2018-03-22T14:25:34.573Z,16.10
2018-03-22T14:28:07.269Z,16.20
2018-03-22T14:30:36.312Z,15.50
2018-03-22T14:33:05.420Z,16.10
2018-03-22T14:35:34.659Z,15.30
2018-03-22T14:38:05.420Z,14.57
2018-03-22T14:40:34.464Z,15.03
2018-03-22T14:43:04.619Z,12.47
2018-03-22T14:45:33.594Z,14.23
2018-03-22T14:48:03.658Z,13.20
2018-03-22T14:50:33.185Z,12.03
2018-03-22T14:53:03.044Z,14.30
2018-03-22T14:55:32.126Z,14.07
2018-03-22T14:58:01.351Z,12.40
2018-03-22T15:00:35.556Z,13.23
2018-03-22T15:03:14.448Z,14.07
2018-03-22T15:05:43.749Z,12.80
2018-03-22T15:08:13.091Z,13.37
2018-03-22T15:10:42.381Z,15.50
2018-03-22T15:13:13.136Z,14.47
2018-03-22T15:15:42.629Z,16.90
2018-03-22T15:18:11.879Z,14.00
2018-03-22T15:23:09.011Z,14.93
2018-03-22T15:25:38.040Z,15.77
2018-03-22T15:28:06.974Z,14.33
2018-03-22T15:30:37.380Z,14.20
2018-03-22T15:33:06.290Z,17.20
2018-03-22T15:35:35.289Z,14.50
2018-03-22T15:38:05.624Z,17.80
2018-03-22T15:40:34.718Z,15.47
2018-03-22T15:43:04.760Z,16.70
2018-03-22T15:45:34.265Z,16.80
2018-03-22T15:48:04.358Z,18.50
2018-03-22T15:50:33.411Z,17.83
2018-03-22T15:53:03.207Z,16.80
2018-03-22T15:55:32.113Z,18.43
2018-03-22T15:58:02.613Z,18.13
2018-03-22T16:00:31.857Z,17.30
2018-03-22T16:03:02.445Z,17.30
2018-03-22T16:05:31.400Z,22.20
2018-03-22T16:08:00.554Z,19.60
2018-03-22T16:10:29.451Z,18.43
2018-03-22T16:12:58.407Z,19.03
2018-03-22T16:15:27.596Z,19.73
2018-03-22T16:17:56.602Z,18.90
2018-03-22T16:20:25.532Z,18.20
2018-03-22T16:22:54.899Z,18.00
2018-03-22T16:25:23.814Z,18.20
2018-03-22T16:27:52.919Z,20.40
2018-03-22T16:30:22.597Z,19.50
2018-03-22T16:32:51.651Z,20.30
2018-03-22T16:35:21.143Z,19.73
2018-03-22T16:37:51.550Z,20.70
2018-03-22T16:40:20.586Z,15.80
2018-03-22T16:42:49.515Z,14.63
2018-03-22T16:45:18.899Z,13.97
2018-03-22T16:47:47.823Z,12.13
2018-03-22T16:50:17.170Z,12.63
2018-03-22T16:52:46.617Z,12.00
2018-03-22T16:55:15.904Z,12.23
2018-03-22T16:57:44.836Z,12.03
2018-03-22T17:00:14.689Z,11.20
2018-03-22T17:02:43.563Z,8.80
2018-03-22T17:05:12.560Z,9.70
2018-03-22T17:07:41.915Z,9.43
2018-03-22T17:10:10.898Z,8.70
2018-03-22T17:15:06.368Z,8.77
2018-03-22T17:17:35.333Z,9.20
2018-03-22T17:20:07.509Z,8.23
2018-03-22T17:22:36.850Z,8.03
2018-03-22T17:25:06.714Z,8.17
2018-03-22T17:27:35.652Z,8.57
2018-03-22T17:30:06.185Z,6.83
2018-03-22T17:32:35.369Z,8.43
2018-03-22T17:35:05.579Z,8.07
2018-03-22T17:37:34.663Z,7.60
2018-03-22T17:40:05.076Z,8.40
2018-03-22T17:42:35.466Z,7.30
2018-03-22T17:45:04.664Z,8.70
2018-03-22T17:47:34.453Z,9.60
2018-03-22T17:50:04.780Z,11.53
2018-03-22T17:52:34.259Z,12.47
2018-03-22T17:55:04.347Z,12.33
2018-03-22T17:57:33.384Z,11.90
2018-03-22T18:00:03.796Z,12.37
2018-03-22T18:02:33.401Z,11.80
2018-03-22T18:05:02.896Z,13.83
2018-03-22T18:07:32.680Z,12.50
2018-03-22T18:10:04.066Z,12.40
2018-03-22T18:12:33.187Z,12.90
2018-03-22T18:15:03.015Z,10.90
2018-03-22T18:17:32.454Z,10.77
2018-03-22T18:20:03.338Z,10.90
2018-03-22T18:22:32.300Z,12.57
2018-03-22T18:25:02.060Z,11.40
2018-03-22T18:27:35.060Z,11.07
2018-03-22T18:30:14.718Z,9.70
2018-03-22T18:32:51.237Z,10.50
2018-03-22T18:35:20.802Z,9.30
2018-03-22T18:37:49.735Z,10.27
2018-03-22T18:40:19.264Z,10.70
2018-03-22T18:42:48.127Z,11.10
2018-03-22T18:45:17.118Z,12.30
2018-03-22T18:47:46.275Z,12.03
2018-03-22T18:50:15.623Z,11.63
2018-03-22T18:52:45.520Z,13.70
2018-03-22T18:55:14.743Z,14.50
2018-03-22T18:57:43.770Z,13.43
2018-03-22T19:00:13.120Z,13.47
2018-03-22T19:02:42.476Z,13.37
2018-03-22T19:05:11.425Z,13.33
2018-03-22T19:07:40.351Z,16.03
2018-03-22T19:10:09.574Z,16.07
2018-03-22T19:12:39.301Z,16.53
2018-03-22T19:15:08.522Z,13.60
2018-03-22T19:17:37.525Z,14.13
2018-03-22T19:20:08.129Z,15.40
2018-03-22T19:22:37.120Z,13.13
2018-03-22T19:25:07.328Z,14.97
2018-03-22T19:27:36.223Z,14.80
2018-03-22T19:30:06.273Z,14.80
2018-03-22T19:32:36.214Z,15.97
2018-03-22T19:35:05.849Z,15.50
2018-03-22T19:37:34.766Z,15.77
2018-03-22T19:40:05.811Z,15.10
2018-03-22T19:42:34.771Z,14.87
2018-03-22T19:45:04.385Z,14.83
2018-03-22T19:47:33.559Z,14.17
2018-03-22T19:50:05.044Z,14.50
2018-03-22T19:52:34.010Z,13.47
2018-03-22T19:55:03.973Z,14.07
2018-03-22T19:57:33.029Z,15.27
2018-03-22T20:00:04.660Z,13.70
2018-03-22T20:02:33.682Z,14.70
2018-03-22T20:05:03.523Z,14.90
2018-03-22T20:07:32.821Z,15.77
2018-03-22T20:10:03.695Z,15.57
2018-03-22T20:12:32.628Z,15.20
2018-03-22T20:15:04.229Z,14.50
2018-03-22T20:17:33.272Z,15.30
2018-03-22T20:20:03.555Z,15.07
2018-03-22T20:22:32.833Z,16.17
2018-03-22T20:25:03.211Z,16.87
2018-03-22T20:27:32.211Z,16.10
2018-03-22T20:30:03.524Z,17.50
2018-03-22T20:32:32.406Z,16.90
2018-03-22T20:35:02.528Z,17.40
2018-03-22T20:37:31.920Z,17.77
2018-03-22T20:40:00.971Z,20.47
2018-03-22T20:42:31.036Z,18.13
2018-03-22T20:45:04.246Z,17.30
2018-03-22T20:47:34.535Z,17.30
2018-03-22T20:50:04.404Z,17.93
2018-03-22T20:52:33.794Z,18.43
2018-03-22T20:55:03.211Z,19.07
2018-03-22T20:57:32.147Z,18.67
2018-03-22T21:00:03.189Z,18.43
2018-03-22T21:02:32.211Z,19.77
2018-03-22T21:05:01.780Z,18.30
2018-03-22T21:07:31.025Z,19.13
2018-03-22T21:09:59.924Z,19.83
2018-03-22T21:12:28.851Z,18.63
2018-03-22T21:14:57.766Z,18.10
2018-03-22T21:17:26.921Z,18.37
2018-03-22T21:19:56.135Z,20.67
2018-03-22T21:22:25.523Z,20.60
2018-03-22T21:24:54.387Z,19.87
2018-03-22T21:27:24.382Z,20.17
2018-03-22T21:29:53.275Z,20.70
2018-03-22T21:32:22.135Z,20.67
2018-03-22T21:34:51.550Z,22.43
2018-03-22T21:37:21.337Z,24.33
2018-03-22T21:39:52.231Z,21.57
2018-03-22T21:42:23.132Z,21.50
2018-03-22T21:44:53.399Z,24.60
2018-03-22T21:47:34.660Z,24.23
2018-03-22T21:50:05.550Z,22.87
2018-03-22T21:52:45.956Z,23.60
2018-03-22T21:55:15.848Z,23.50
2018-03-22T21:57:45.185Z,25.87
2018-03-22T22:00:14.752Z,24.13
2018-03-22T22:02:44.484Z,24.87
2018-03-22T22:05:14.534Z,24.90
2018-03-22T22:07:44.589Z,25.00
2018-03-22T22:10:14.084Z,25.97
2018-03-22T22:12:43.847Z,25.77
2018-03-22T22:15:13.436Z,25.87
2018-03-22T22:17:42.920Z,27.90
2018-03-22T22:20:12.634Z,25.60
2018-03-22T22:22:42.006Z,26.63
2018-03-22T22:25:11.359Z,28.43
2018-03-22T22:27:40.672Z,28.23
2018-03-22T22:30:09.593Z,27.53
2018-03-22T22:32:38.485Z,25.63
2018-03-22T22:35:07.810Z,24.90
2018-03-22T22:37:36.761Z,24.97
2018-03-22T22:40:05.740Z,27.30
2018-03-22T22:42:35.174Z,27.97
2018-03-22T22:45:05.017Z,28.60
2018-03-22T22:47:33.964Z,28.00
2018-03-22T22:50:03.986Z,27.07
2018-03-22T22:52:32.866Z,27.87
2018-03-22T22:55:02.180Z,29.13
2018-03-22T22:57:31.566Z,27.37
2018-03-22T23:00:02.723Z,29.23
2018-03-22T23:02:31.815Z,27.80
2018-03-22T23:05:01.903Z,27.47
2018-03-22T23:07:30.856Z,26.80
2018-03-22T23:09:59.925Z,28.60
2018-03-22T23:12:29.304Z,26.40
2018-03-22T23:14:58.205Z,27.97
2018-03-22T23:17:27.113Z,28.57
2018-03-22T23:19:56.404Z,29.70
2018-03-22T23:22:25.311Z,29.00
2018-03-22T23:24:54.163Z,29.37
2018-03-22T23:27:23.049Z,28.73
2018-03-22T23:29:51.958Z,28.17
2018-03-22T23:32:21.334Z,27.43
2018-03-22T23:34:50.259Z,27.77
2018-03-22T23:37:19.133Z,26.50
2018-03-22T23:39:48.008Z,27.50
2018-03-22T23:42:16.907Z,28.23
2018-03-22T23:44:46.631Z,29.40
2018-03-22T23:47:15.755Z,27.47
2018-03-22T23:49:44.672Z,28.90
2018-03-22T23:52:14.260Z,26.43
2018-03-22T23:54:43.171Z,28.77
2018-03-22T23:57:12.087Z,26.43
2018-03-22T23:59:41.867Z,27.13
